createdAt,value
2023-02-23T00:02:06.623Z,5.66
2023-02-23T00:04:37.155Z,5.38
2023-02-23T00:07:04.470Z,5.57
2023-02-23T00:09:35.981Z,5.43
2023-02-23T00:12:08.055Z,5.57
2023-02-23T00:14:35.419Z,5.56
2023-02-23T00:17:02.135Z,5.33
2023-02-23T00:19:28.778Z,5.31
2023-02-23T00:21:58.834Z,4.88
2023-02-23T00:24:27.030Z,4.88
2023-02-23T00:26:53.886Z,4.68
2023-02-23T00:29:23.217Z,4.71
2023-02-23T00:31:51.907Z,4.65
2023-02-23T00:34:23.973Z,4.50
2023-02-23T00:36:55.426Z,4.39
2023-02-23T00:39:23.673Z,4.44
2023-02-23T00:41:52.398Z,4.44
2023-02-23T00:44:21.076Z,4.45
2023-02-23T00:46:51.819Z,4.41
2023-02-23T00:49:20.100Z,4.53
2023-02-23T00:51:47.056Z,4.49
2023-02-23T00:54:14.921Z,4.39
2023-02-23T00:56:42.006Z,4.39
2023-02-23T00:59:09.394Z,4.08
2023-02-23T01:01:37.645Z,3.79
2023-02-23T01:04:05.357Z,3.93
2023-02-23T01:06:32.330Z,4.03
2023-02-23T01:08:59.063Z,4.15
2023-02-23T01:11:31.042Z,4.04
2023-02-23T01:13:59.553Z,4.10
2023-02-23T01:16:30.125Z,4.10
2023-02-23T01:18:59.323Z,4.13
2023-02-23T01:21:33.039Z,4.11
2023-02-23T01:24:00.024Z,4.19
2023-02-23T01:26:34.836Z,4.19
2023-02-23T01:29:23.550Z,4.30
2023-02-23T01:31:53.113Z,4.30
2023-02-23T01:34:21.800Z,4.30
2023-02-23T01:36:48.703Z,4.33
2023-02-23T01:39:19.495Z,4.34
2023-02-23T01:41:46.452Z,4.35
2023-02-23T01:44:13.051Z,4.45
2023-02-23T01:46:47.494Z,4.48
2023-02-23T01:49:20.317Z,4.32
2023-02-23T01:51:52.442Z,4.39
2023-02-23T01:54:22.723Z,4.48
2023-02-23T01:56:58.210Z,4.51
2023-02-23T01:59:43.884Z,4.54
2023-02-23T02:02:11.127Z,4.45
2023-02-23T02:04:46.450Z,4.62
2023-02-23T02:07:25.029Z,4.48
2023-02-23T02:10:17.803Z,4.56
2023-02-23T02:12:56.367Z,4.51
2023-02-23T02:15:29.853Z,4.45
2023-02-23T02:18:38.231Z,4.23
2023-02-23T02:21:42.113Z,4.08
2023-02-23T02:24:08.662Z,4.11
2023-02-23T02:27:02.855Z,4.12
2023-02-23T02:29:56.160Z,4.01
2023-02-23T02:32:54.234Z,3.96
2023-02-23T02:35:58.392Z,3.69
2023-02-23T02:38:51.045Z,3.50
2023-02-23T02:41:20.841Z,3.38
2023-02-23T02:44:09.404Z,3.35
2023-02-23T02:46:40.970Z,3.26
2023-02-23T02:49:30.656Z,3.36
2023-02-23T02:52:19.356Z,3.29
2023-02-23T02:54:53.501Z,3.29
2023-02-23T02:57:25.238Z,3.43
2023-02-23T03:00:11.535Z,3.38
2023-02-23T03:02:58.300Z,3.29
2023-02-23T03:06:00.982Z,3.26
2023-02-23T03:09:26.022Z,3.25
2023-02-23T03:12:46.720Z,3.08
2023-02-23T03:15:47.870Z,2.89
2023-02-23T03:19:02.172Z,2.88
2023-02-23T03:22:00.641Z,2.61
2023-02-23T03:24:58.964Z,2.68
2023-02-23T03:28:05.970Z,2.62
2023-02-23T03:31:20.445Z,2.77
2023-02-23T03:34:18.349Z,2.83
2023-02-23T03:37:10.991Z,2.95
2023-02-23T03:40:01.823Z,2.93
2023-02-23T03:42:52.781Z,2.90
2023-02-23T03:45:40.417Z,2.94
2023-02-23T03:48:29.348Z,3.00
2023-02-23T03:51:20.134Z,2.86
2023-02-23T03:54:24.165Z,2.84
2023-02-23T03:57:12.828Z,2.71
2023-02-23T04:00:05.745Z,2.58
2023-02-23T04:02:54.986Z,2.47
2023-02-23T04:05:42.660Z,2.69
2023-02-23T04:08:32.624Z,2.74
2023-02-23T04:11:30.441Z,2.86
2023-02-23T04:14:01.971Z,2.92
2023-02-23T04:16:30.550Z,2.88
2023-02-23T04:18:58.099Z,2.89
2023-02-23T04:21:24.742Z,2.91
2023-02-23T04:23:51.647Z,2.83
2023-02-23T04:26:18.214Z,2.89
2023-02-23T04:28:44.791Z,2.89
2023-02-23T04:31:14.202Z,2.81
2023-02-23T04:33:40.777Z,3.01
2023-02-23T04:36:07.823Z,3.00
2023-02-23T04:38:34.444Z,2.88
2023-02-23T04:41:01.111Z,3.11
2023-02-23T04:43:27.720Z,3.04
2023-02-23T04:45:54.349Z,3.02
2023-02-23T04:48:21.147Z,3.01
2023-02-23T04:50:47.761Z,3.01
2023-02-23T04:53:14.374Z,2.82
2023-02-23T04:55:40.959Z,2.81
2023-02-23T04:58:13.583Z,2.72
2023-02-23T05:00:41.104Z,2.65
2023-02-23T05:03:07.870Z,2.51
2023-02-23T05:05:34.459Z,2.61
2023-02-23T05:08:01.064Z,2.51
2023-02-23T05:10:27.728Z,2.55
2023-02-23T05:12:54.943Z,2.44
2023-02-23T05:15:21.748Z,2.34
2023-02-23T05:17:48.524Z,2.09
2023-02-23T05:20:15.394Z,2.25
2023-02-23T05:22:42.001Z,2.18
2023-02-23T05:25:10.414Z,2.19
2023-02-23T05:27:37.541Z,2.33
2023-02-23T05:30:07.463Z,2.37
2023-02-23T05:32:34.878Z,2.50
2023-02-23T05:35:02.657Z,2.67
2023-02-23T05:37:29.238Z,2.72
2023-02-23T05:39:55.807Z,2.89
2023-02-23T05:42:22.410Z,3.11
2023-02-23T05:44:49.038Z,3.17
2023-02-23T05:47:15.654Z,3.35
2023-02-23T05:49:42.763Z,3.53
2023-02-23T05:52:09.356Z,3.92
2023-02-23T05:54:35.952Z,3.95
2023-02-23T05:57:02.527Z,4.50
2023-02-23T05:59:29.121Z,5.06
2023-02-23T06:01:55.823Z,5.62
2023-02-23T06:04:23.375Z,6.25
2023-02-23T06:06:50.120Z,6.49
2023-02-23T06:09:16.742Z,7.08
2023-02-23T06:11:44.601Z,7.30
2023-02-23T06:14:11.359Z,7.51
2023-02-23T06:16:38.227Z,7.82
2023-02-23T06:19:05.033Z,7.95
2023-02-23T06:21:31.571Z,8.17
2023-02-23T06:24:00.668Z,8.20
2023-02-23T06:26:27.451Z,8.30
2023-02-23T06:28:54.379Z,8.46
2023-02-23T06:31:21.827Z,8.59
2023-02-23T06:33:48.811Z,8.72
2023-02-23T06:36:15.437Z,8.58
2023-02-23T06:38:42.188Z,8.94
2023-02-23T06:41:10.715Z,8.82
2023-02-23T06:43:37.458Z,8.82
2023-02-23T06:46:04.623Z,8.92
2023-02-23T06:48:31.780Z,8.82
2023-02-23T06:50:59.988Z,8.65
2023-02-23T06:53:26.681Z,8.46
2023-02-23T06:55:53.368Z,8.19
2023-02-23T06:58:19.999Z,8.29
2023-02-23T07:00:46.700Z,8.08
2023-02-23T07:03:13.308Z,7.76
2023-02-23T07:05:40.965Z,8.07
2023-02-23T07:08:07.733Z,8.26
2023-02-23T07:10:35.081Z,8.24
2023-02-23T07:13:01.854Z,8.67
2023-02-23T07:15:28.565Z,8.58
2023-02-23T07:17:55.482Z,8.79
2023-02-23T07:20:22.094Z,9.25
2023-02-23T07:22:48.691Z,8.85
2023-02-23T07:25:15.330Z,9.06
2023-02-23T07:27:42.403Z,9.66
2023-02-23T07:30:10.045Z,9.76
2023-02-23T07:32:36.788Z,9.80
2023-02-23T07:35:04.707Z,9.97
2023-02-23T07:37:31.339Z,9.84
2023-02-23T07:39:59.529Z,9.82
2023-02-23T07:42:27.666Z,9.52
2023-02-23T07:44:54.264Z,9.19
2023-02-23T07:47:21.007Z,8.98
2023-02-23T07:49:47.756Z,8.83
2023-02-23T07:52:18.478Z,8.83
2023-02-23T07:54:45.318Z,8.66
2023-02-23T07:57:12.354Z,8.79
2023-02-23T07:59:39.346Z,8.67
2023-02-23T08:02:05.987Z,8.82
2023-02-23T08:04:32.652Z,8.83
2023-02-23T08:06:59.669Z,8.83
2023-02-23T08:09:26.240Z,9.05
2023-02-23T08:11:52.779Z,8.99
2023-02-23T08:14:23.582Z,9.28
2023-02-23T08:16:51.655Z,9.42
2023-02-23T08:19:18.437Z,9.66
2023-02-23T08:21:45.519Z,9.76
2023-02-23T08:24:12.141Z,9.78
2023-02-23T08:26:38.771Z,9.83
2023-02-23T08:29:05.462Z,9.88
2023-02-23T08:31:33.859Z,9.71
2023-02-23T08:34:01.464Z,10.00
2023-02-23T08:36:28.281Z,10.06
2023-02-23T08:38:54.995Z,9.96
2023-02-23T08:41:22.075Z,10.09
2023-02-23T08:43:48.991Z,10.26
2023-02-23T08:46:18.603Z,10.48
2023-02-23T08:48:45.317Z,10.73
2023-02-23T08:51:11.900Z,10.66
2023-02-23T08:53:38.509Z,10.66
2023-02-23T08:56:07.315Z,10.73
2023-02-23T08:58:35.953Z,10.95
2023-02-23T09:01:04.030Z,11.05
2023-02-23T09:03:33.586Z,11.42
2023-02-23T09:06:10.148Z,11.56
2023-02-23T09:08:36.986Z,11.57
2023-02-23T09:11:03.520Z,11.93
2023-02-23T09:13:30.105Z,12.09
2023-02-23T09:15:56.761Z,12.06
2023-02-23T09:18:24.147Z,12.24
2023-02-23T09:20:51.906Z,12.41
2023-02-23T09:23:19.900Z,12.32
2023-02-23T09:25:46.824Z,12.56
2023-02-23T09:28:16.561Z,12.53
2023-02-23T09:30:44.722Z,12.07
2023-02-23T09:33:12.192Z,12.55
2023-02-23T09:35:39.421Z,12.56
2023-02-23T09:38:07.579Z,12.74
2023-02-23T09:40:46.981Z,13.14
2023-02-23T09:43:22.334Z,13.10
2023-02-23T09:46:04.269Z,13.11
2023-02-23T09:48:31.476Z,13.47
2023-02-23T09:50:59.909Z,13.54
2023-02-23T09:53:42.867Z,13.43
2023-02-23T09:56:35.772Z,13.73
2023-02-23T09:59:05.793Z,13.90
2023-02-23T10:02:10.685Z,14.04
2023-02-23T10:04:40.832Z,14.28
2023-02-23T10:07:18.600Z,14.39
2023-02-23T10:09:54.479Z,14.06
2023-02-23T10:12:29.946Z,14.00
2023-02-23T10:15:12.761Z,14.27
2023-02-23T10:17:50.802Z,14.47
2023-02-23T10:20:28.576Z,14.61
2023-02-23T10:23:01.330Z,14.47
2023-02-23T10:25:32.170Z,14.32
2023-02-23T10:28:01.038Z,15.06
2023-02-23T10:30:30.907Z,14.81
2023-02-23T10:33:25.561Z,15.28
2023-02-23T10:36:12.744Z,15.67
2023-02-23T10:38:40.725Z,16.01
2023-02-23T10:41:09.001Z,15.75
2023-02-23T10:43:35.767Z,16.46
2023-02-23T10:46:02.434Z,16.62
2023-02-23T10:48:43.160Z,16.06
2023-02-23T10:51:26.322Z,15.94
2023-02-23T10:53:53.019Z,16.51
2023-02-23T10:56:21.217Z,16.50
2023-02-23T10:58:58.455Z,16.48
2023-02-23T11:02:01.928Z,16.33
2023-02-23T11:04:31.463Z,15.98
2023-02-23T11:07:16.437Z,16.52
2023-02-23T11:09:47.607Z,16.22
2023-02-23T11:12:21.751Z,16.43
2023-02-23T11:14:53.405Z,16.39
2023-02-23T11:17:37.663Z,15.92
2023-02-23T11:20:28.690Z,16.13
2023-02-23T11:22:58.991Z,15.66
2023-02-23T11:25:32.715Z,15.49
2023-02-23T11:27:59.914Z,15.50
2023-02-23T11:30:38.092Z,15.91
2023-02-23T11:33:12.130Z,15.93
2023-02-23T11:35:39.210Z,16.08
2023-02-23T11:38:26.676Z,16.43
2023-02-23T11:41:05.627Z,15.98
2023-02-23T11:43:33.196Z,16.19
2023-02-23T11:46:02.090Z,16.65
2023-02-23T11:48:33.595Z,16.85
2023-02-23T11:51:01.328Z,16.64
2023-02-23T11:53:44.931Z,16.49
2023-02-23T11:56:12.623Z,16.46
2023-02-23T11:58:51.229Z,16.82
2023-02-23T12:01:44.005Z,16.30
2023-02-23T12:04:23.909Z,15.98
2023-02-23T12:06:51.079Z,16.45
2023-02-23T12:09:23.833Z,16.64
2023-02-23T12:12:01.856Z,16.65
2023-02-23T12:14:41.425Z,16.60
2023-02-23T12:17:23.975Z,17.05
2023-02-23T12:20:01.603Z,17.02
2023-02-23T12:22:53.812Z,17.23
2023-02-23T12:25:46.165Z,16.38
2023-02-23T12:28:32.233Z,16.71
2023-02-23T12:31:06.094Z,16.70
2023-02-23T12:33:39.354Z,16.77
2023-02-23T12:36:39.683Z,16.81
2023-02-23T12:39:30.723Z,16.63
2023-02-23T12:42:22.679Z,16.73
2023-02-23T12:44:58.813Z,16.60
2023-02-23T12:47:49.308Z,15.73
2023-02-23T12:50:24.883Z,16.28
2023-02-23T12:52:57.697Z,16.37
2023-02-23T12:56:06.552Z,16.60
2023-02-23T12:58:51.694Z,16.62
2023-02-23T13:01:33.977Z,16.83
2023-02-23T13:04:26.940Z,16.84
2023-02-23T13:07:05.521Z,16.58
2023-02-23T13:09:48.065Z,16.37
2023-02-23T13:12:42.467Z,16.54
2023-02-23T13:15:46.119Z,16.21
2023-02-23T13:18:34.614Z,16.17
2023-02-23T13:21:27.132Z,16.22
2023-02-23T13:23:56.644Z,16.16
2023-02-23T13:26:34.605Z,16.15
2023-02-23T13:29:01.196Z,16.09
2023-02-23T13:31:40.168Z,15.73
2023-02-23T13:34:24.284Z,16.22
2023-02-23T13:36:51.907Z,16.12
2023-02-23T13:39:37.109Z,16.05
2023-02-23T13:42:28.600Z,16.09
2023-02-23T13:45:14.969Z,16.10
2023-02-23T13:47:53.674Z,16.18
2023-02-23T13:50:30.309Z,16.05
2023-02-23T13:53:02.063Z,16.13
2023-02-23T13:55:40.038Z,16.21
2023-02-23T13:58:17.078Z,16.01
2023-02-23T14:00:50.010Z,16.08
2023-02-23T14:03:27.330Z,16.12
2023-02-23T14:05:59.842Z,15.75
2023-02-23T14:08:38.837Z,16.09
2023-02-23T14:11:06.495Z,16.10
2023-02-23T14:13:39.222Z,15.97
2023-02-23T14:16:24.252Z,16.07
2023-02-23T14:18:50.817Z,16.08
2023-02-23T14:21:26.614Z,16.11
2023-02-23T14:24:14.392Z,15.84
2023-02-23T14:27:08.284Z,15.28
2023-02-23T14:29:44.123Z,15.02
2023-02-23T14:32:10.984Z,14.64
2023-02-23T14:34:59.734Z,14.20
2023-02-23T14:37:55.613Z,14.00
2023-02-23T14:40:32.241Z,13.90
2023-02-23T14:43:02.254Z,13.65
2023-02-23T14:45:37.071Z,13.26
2023-02-23T14:48:17.165Z,13.56
2023-02-23T14:50:44.569Z,13.36
2023-02-23T14:53:24.335Z,13.06
2023-02-23T14:55:50.951Z,13.07
2023-02-23T14:58:35.291Z,12.99
2023-02-23T15:01:01.986Z,13.14
2023-02-23T15:03:28.747Z,12.65
2023-02-23T15:05:58.886Z,12.76
2023-02-23T15:08:28.118Z,12.92
2023-02-23T15:11:05.597Z,12.70
2023-02-23T15:13:40.449Z,12.76
2023-02-23T15:16:12.771Z,12.69
2023-02-23T15:18:42.313Z,12.79
2023-02-23T15:21:12.884Z,12.84
2023-02-23T15:23:39.985Z,13.00
2023-02-23T15:26:26.379Z,12.96
2023-02-23T15:28:53.653Z,12.81
2023-02-23T15:31:20.579Z,12.77
2023-02-23T15:33:50.850Z,12.69
2023-02-23T15:36:31.433Z,12.49
2023-02-23T15:39:01.087Z,12.50
2023-02-23T15:41:38.433Z,12.35
2023-02-23T15:44:14.549Z,12.20
2023-02-23T15:46:44.198Z,12.08
2023-02-23T15:49:14.367Z,12.09
2023-02-23T15:51:48.604Z,12.03
2023-02-23T15:54:29.754Z,11.95
2023-02-23T15:57:02.114Z,11.69
2023-02-23T15:59:34.732Z,11.61
2023-02-23T16:02:03.080Z,11.59
2023-02-23T16:04:33.818Z,11.47
2023-02-23T16:07:14.811Z,11.53
2023-02-23T16:09:50.302Z,11.40
2023-02-23T16:12:23.768Z,11.17
2023-02-23T16:15:27.116Z,11.28
2023-02-23T16:17:57.854Z,11.20
2023-02-23T16:20:35.587Z,11.16
2023-02-23T16:23:03.278Z,11.06
2023-02-23T16:25:31.190Z,11.05
2023-02-23T16:28:03.273Z,10.81
2023-02-23T16:30:32.948Z,10.94
2023-02-23T16:33:07.769Z,10.84
2023-02-23T16:35:46.527Z,10.79
2023-02-23T16:38:35.430Z,10.61
2023-02-23T16:41:11.249Z,10.65
2023-02-23T16:43:37.871Z,10.57
2023-02-23T16:46:04.599Z,10.54
2023-02-23T16:48:31.246Z,10.49
2023-02-23T16:50:57.878Z,10.17
2023-02-23T16:53:25.346Z,10.32
2023-02-23T16:56:01.019Z,10.33
2023-02-23T16:58:30.528Z,10.17
2023-02-23T17:00:57.213Z,10.23
2023-02-23T17:03:30.422Z,10.06
2023-02-23T17:05:57.280Z,10.11
2023-02-23T17:08:24.699Z,10.08
2023-02-23T17:10:57.376Z,10.02
2023-02-23T17:13:26.104Z,9.96
2023-02-23T17:15:56.311Z,9.85
2023-02-23T17:20:59.464Z,9.79
2023-02-23T17:23:28.544Z,9.79
2023-02-23T17:25:58.783Z,9.78
2023-02-23T17:28:25.935Z,9.63
2023-02-23T17:30:52.605Z,9.56
2023-02-23T17:33:19.633Z,9.45
2023-02-23T17:35:46.913Z,9.45
2023-02-23T17:38:14.968Z,9.46
2023-02-23T17:40:41.648Z,9.41
2023-02-23T17:43:08.653Z,9.32
2023-02-23T17:45:35.446Z,9.18
2023-02-23T17:48:02.020Z,8.86
2023-02-23T17:50:29.110Z,9.18
2023-02-23T17:52:56.468Z,9.13
2023-02-23T17:55:24.126Z,8.91
2023-02-23T17:57:50.808Z,8.96
2023-02-23T18:00:19.050Z,8.94
2023-02-23T18:02:46.726Z,8.89
2023-02-23T18:05:14.621Z,8.71
2023-02-23T18:07:42.019Z,8.77
2023-02-23T18:10:09.505Z,8.74
2023-02-23T18:12:36.100Z,8.62
2023-02-23T18:15:02.897Z,8.57
2023-02-23T18:17:32.557Z,8.41
2023-02-23T18:20:00.420Z,8.46
2023-02-23T18:22:27.131Z,8.45
2023-02-23T18:24:53.738Z,8.42
2023-02-23T18:27:20.390Z,8.14
2023-02-23T18:29:46.998Z,8.32
2023-02-23T18:32:13.754Z,8.29
2023-02-23T18:34:40.591Z,8.25
2023-02-23T18:37:10.201Z,8.16
2023-02-23T18:39:37.209Z,8.16
2023-02-23T18:42:04.550Z,7.95
2023-02-23T18:44:33.442Z,8.10
2023-02-23T18:47:01.394Z,7.99
2023-02-23T18:49:28.055Z,7.98
2023-02-23T18:51:54.795Z,7.97
2023-02-23T18:54:22.458Z,7.95
2023-02-23T18:56:49.328Z,7.97
2023-02-23T18:59:16.198Z,7.92
2023-02-23T19:01:45.454Z,7.89
2023-02-23T19:04:12.829Z,7.81
2023-02-23T19:06:42.924Z,7.81
2023-02-23T19:09:12.614Z,7.73
2023-02-23T19:11:41.428Z,7.60
2023-02-23T19:14:12.122Z,7.60
2023-02-23T19:16:41.200Z,7.61
2023-02-23T19:19:08.417Z,7.57
2023-02-23T19:21:36.022Z,7.52
2023-02-23T19:24:03.477Z,7.45
2023-02-23T19:26:31.720Z,7.30
2023-02-23T19:28:58.791Z,7.22
2023-02-23T19:31:26.550Z,7.32
2023-02-23T19:33:56.001Z,7.17
2023-02-23T19:36:29.607Z,7.22
2023-02-23T19:39:06.262Z,7.16
2023-02-23T19:41:33.970Z,7.06
2023-02-23T19:44:01.113Z,7.06
2023-02-23T19:46:28.066Z,7.02
2023-02-23T19:48:54.864Z,7.02
2023-02-23T19:51:22.450Z,7.00
2023-02-23T19:53:49.607Z,7.05
2023-02-23T19:56:17.179Z,7.06
2023-02-23T19:58:46.684Z,6.99
2023-02-23T20:01:16.926Z,6.93
2023-02-23T20:03:45.900Z,6.88
2023-02-23T20:06:14.583Z,6.78
2023-02-23T20:08:42.475Z,6.92
2023-02-23T20:11:09.466Z,6.76
2023-02-23T20:13:38.589Z,6.81
2023-02-23T20:16:09.052Z,6.85
2023-02-23T20:18:38.572Z,6.85
2023-02-23T20:21:24.427Z,6.81
2023-02-23T20:23:51.511Z,6.63
2023-02-23T20:26:21.913Z,6.73
2023-02-23T20:28:50.141Z,6.58
2023-02-23T20:31:23.276Z,6.58
2023-02-23T20:33:50.405Z,6.52
2023-02-23T20:36:18.735Z,6.58
2023-02-23T20:38:45.478Z,6.50
2023-02-23T20:41:12.209Z,6.67
2023-02-23T20:43:39.167Z,6.65
2023-02-23T20:46:06.662Z,6.57
2023-02-23T20:48:34.872Z,6.66
2023-02-23T20:51:02.901Z,6.67
2023-02-23T20:53:30.259Z,6.72
2023-02-23T20:55:56.989Z,6.50
2023-02-23T20:58:26.282Z,6.64
2023-02-23T21:00:57.237Z,6.69
2023-02-23T21:03:25.374Z,6.65
2023-02-23T21:05:53.017Z,6.61
2023-02-23T21:08:20.715Z,6.64
2023-02-23T21:10:48.798Z,6.53
2023-02-23T21:13:16.591Z,6.65
2023-02-23T21:15:44.428Z,6.45
2023-02-23T21:18:11.848Z,6.51
2023-02-23T21:20:39.766Z,6.54
2023-02-23T21:23:06.826Z,6.51
2023-02-23T21:25:33.596Z,6.57
2023-02-23T21:28:01.988Z,6.58
2023-02-23T21:30:29.045Z,6.42
2023-02-23T21:32:57.464Z,6.51
2023-02-23T21:35:24.542Z,6.54
2023-02-23T21:37:52.162Z,6.55
2023-02-23T21:40:23.379Z,6.54
2023-02-23T21:42:50.949Z,6.51
2023-02-23T21:45:18.249Z,6.55
2023-02-23T21:47:46.276Z,6.40
2023-02-23T21:50:16.891Z,6.48
2023-02-23T21:52:45.354Z,6.59
2023-02-23T21:55:21.177Z,6.42
2023-02-23T21:57:48.488Z,6.49
2023-02-23T22:00:16.440Z,6.41
2023-02-23T22:02:46.738Z,6.32
2023-02-23T22:05:14.911Z,6.46
2023-02-23T22:07:41.682Z,6.46
2023-02-23T22:10:08.887Z,6.44
2023-02-23T22:12:35.496Z,6.54
2023-02-23T22:15:07.186Z,6.48
2023-02-23T22:17:33.913Z,6.46
2023-02-23T22:20:00.618Z,6.47
2023-02-23T22:22:27.574Z,6.53
2023-02-23T22:24:54.171Z,6.55
2023-02-23T22:27:22.184Z,6.50
2023-02-23T22:29:48.895Z,6.50
2023-02-23T22:32:17.640Z,6.45
2023-02-23T22:34:44.427Z,6.37
2023-02-23T22:37:11.080Z,6.47
2023-02-23T22:39:41.714Z,6.52
2023-02-23T22:42:12.583Z,6.52
2023-02-23T22:44:39.329Z,6.48
2023-02-23T22:47:06.840Z,6.43
2023-02-23T22:49:34.723Z,6.21
2023-02-23T22:52:01.412Z,6.33
2023-02-23T22:54:28.092Z,6.27
2023-02-23T22:56:54.949Z,6.34
2023-02-23T22:59:21.521Z,6.36
2023-02-23T23:01:50.185Z,6.36
2023-02-23T23:04:17.276Z,6.22
2023-02-23T23:06:44.249Z,6.27
2023-02-23T23:09:12.173Z,6.27
2023-02-23T23:11:42.477Z,6.23
2023-02-23T23:14:10.596Z,6.22
2023-02-23T23:16:47.614Z,6.25
2023-02-23T23:19:17.565Z,6.15
2023-02-23T23:21:46.072Z,6.19
2023-02-23T23:24:13.519Z,6.23
2023-02-23T23:26:41.327Z,6.25
2023-02-23T23:29:11.380Z,6.18
2023-02-23T23:31:39.738Z,6.24
2023-02-23T23:34:10.220Z,6.24
2023-02-23T23:36:45.951Z,6.26
2023-02-23T23:39:15.305Z,6.00
2023-02-23T23:41:48.726Z,6.21
2023-02-23T23:44:21.586Z,6.08
2023-02-23T23:46:50.864Z,6.17
2023-02-23T23:49:19.917Z,6.21
2023-02-23T23:51:50.279Z,6.12
2023-02-23T23:54:31.327Z,6.16
2023-02-23T23:57:01.455Z,6.05
2023-02-23T23:59:28.498Z,6.09
